Time;durP1;ratioP1;P1;durP2;ratioP2;P2;SDS_P1;SDS_P2;PMS_P1;PMS_P2;Temp;Humidity;BMP_temperature;BMP_pressure;BME280_temperature;BME280_humidity;BME280_pressure;Samples;Min_cycle;Max_cycle;Signal;HPM_P1;HPM_P2
2021/08/11 00:02:05;;;;;;;;;;;;;;;;;;4581871;27;20448;-61
2021/08/11 00:04:15;;;;;;;;;;;;;;;;;;4580378;27;20003;-61
2021/08/11 00:06:25;;;;;;;;;;;;;;;;;;4580561;27;19999;-61
2021/08/11 00:08:35;;;;;;;;;;;;;;;;;;4581929;27;19916;-61
2021/08/11 00:10:46;;;;;;;;;;;;;;;;;;4567422;27;20308;-61
2021/08/11 00:12:56;;;;;;;;;;;;;;;;;;4577737;27;25698;-61
2021/08/11 00:15:06;;;;;;;;;;;;;;;;;;4581715;27;19916;-61
2021/08/11 00:17:17;;;;;;;;;;;;;;;;;;4583658;27;19923;-61
2021/08/11 00:19:28;;;;;;;;;;;;;;;;;;4578786;27;19941;-61
2021/08/11 00:21:38;;;;;;;;;;;;;;;;;;4580108;27;19920;-61
2021/08/11 00:23:48;;;;;;;;;;;;;;;;;;4581178;27;19984;-61
2021/08/11 00:25:59;;;;;;;;;;;;;;;;;;4582792;27;19954;-61
2021/08/11 00:28:09;;;;;;;;;;;;;;;;;;4580116;27;19931;-62
2021/08/11 00:30:19;;;;;;;;;;;;;;;;;;4562647;27;20375;-62
2021/08/11 00:32:30;;;;;;;;;;;;;;;;;;4580341;27;19939;-62
2021/08/11 00:34:41;;;;;;;;;;;;;;;;;;4581934;27;19919;-62
2021/08/11 00:36:52;;;;;;;;;;;;;;;;;;4579665;27;21169;-62
2021/08/11 00:39:02;;;;;;;;;;;;;;;;;;4580336;27;20014;-62
2021/08/11 00:41:16;;;;;;;;;;;;;;;;;;4581270;27;19959;-62
2021/08/11 00:43:27;;;;;;;;;;;;;;;;;;4584147;27;19912;-62
2021/08/11 00:45:38;;;;;;;;;;;;;;;;;;4565603;27;19920;-63
2021/08/11 00:47:52;;;;;;;;;;;;;;;;;;4564797;27;19912;-62
2021/08/11 00:50:04;;;;;;;;;;;;;;;;;;4553119;27;19940;-62
2021/08/11 00:52:14;;;;;;;;;;;;;;;;;;4582459;27;19930;-63
2021/08/11 00:54:30;;;;;;;;;;;;;;;;;;4595706;27;20014;-62
2021/08/11 00:56:43;;;;;;;;;;;;;;;;;;4583847;27;19915;-62
2021/08/11 00:58:53;;;;;;;;;;;;;;;;;;4563997;27;19989;-62
2021/08/11 01:01:05;;;;;;;;;;;;;;;;;;4567151;27;19916;-62
2021/08/11 01:03:18;;;;;;;;;;;;;;;;;;4564482;27;20963;-62
2021/08/11 01:05:29;;;;;;;;;;;;;;;;;;4581619;27;19964;-63
2021/08/11 01:07:40;;;;;;;;;;;;;;;;;;4581590;27;20721;-62
2021/08/11 01:09:50;;;;;;;;;;;;;;;;;;4577507;27;20295;-62
2021/08/11 01:12:02;;;;;;;;;;;;;;;;;;4579410;27;20016;-62
2021/08/11 01:14:15;;;;;;;;;;;;;;;;;;4580842;27;19915;-62
2021/08/11 01:16:26;;;;;;;;;;;;;;;;;;4566683;27;20021;-62
2021/08/11 01:18:37;;;;;;;;;;;;;;;;;;4581784;27;20450;-62
2021/08/11 01:20:51;;;;;;;;;;;;;;;;;;4580288;27;20379;-62
2021/08/11 01:23:05;;;;;;;;;;;;;;;;;;4580936;27;19919;-63
2021/08/11 01:25:22;;;;;;;;;;;;;;;;;;4579135;27;19954;-62
2021/08/11 01:27:49;;;;;;;;;;;;;;;;;;4582749;27;20046;-63
2021/08/11 01:30:00;;;;;;;;;;;;;;;;;;4563756;27;20014;-62
2021/08/11 01:32:21;;;;;;;;;;;;;;;;;;4581608;27;19919;-62
2021/08/11 01:34:31;;;;;;;;;;;;;;;;;;4565181;27;19916;-62
2021/08/11 01:36:45;;;;;;;;;;;;;;;;;;4581381;27;19916;-63
2021/08/11 01:38:58;;;;;;;;;;;;;;;;;;4581934;27;19920;-62
2021/08/11 01:41:09;;;;;;;;;;;;;;;;;;4579070;27;19919;-62
2021/08/11 01:43:21;;;;;;;;;;;;;;;;;;4566254;27;20316;-62
2021/08/11 01:45:36;;;;;;;;;;;;;;;;;;4563337;28;20560;-63
2021/08/11 01:47:59;;;;;;;;;;;;;;;;;;4581541;27;20022;-62
2021/08/11 01:50:14;;;;;;;;;;;;;;;;;;4581145;27;20022;-62
2021/08/11 01:52:25;;;;;;;;;;;;;;;;;;4551968;27;19933;-63
2021/08/11 01:54:36;;;;;;;;;;;;;;;;;;4562412;27;19916;-62
2021/08/11 01:56:46;;;;;;;;;;;;;;;;;;4562131;27;20470;-62
2021/08/11 01:58:57;;;;;;;;;;;;;;;;;;4579789;27;19920;-62
2021/08/11 02:01:08;;;;;;;;;;;;;;;;;;4580076;27;19912;-62
2021/08/11 02:03:19;;;;;;;;;;;;;;;;;;4576889;27;19922;-62
2021/08/11 02:05:31;;;;;;;;;;;;;;;;;;4579155;27;20813;-62
2021/08/11 02:07:45;;;;;;;;;;;;;;;;;;4579411;27;19982;-62
2021/08/11 02:09:57;;;;;;;;;;;;;;;;;;4579334;27;20427;-62
2021/08/11 02:12:08;;;;;;;;;;;;;;;;;;4580845;27;19919;-62
2021/08/11 02:14:18;;;;;;;;;;;;;;;;;;4579385;27;19919;-62
2021/08/11 02:16:30;;;;;;;;;;;;;;;;;;4594909;27;19919;-62
2021/08/11 02:18:40;;;;;;;;;;;;;;;;;;4579823;27;20451;-62
2021/08/11 02:20:51;;;;;;;;;;;;;;;;;;4564403;27;19916;-62
2021/08/11 02:23:02;;;;;;;;;;;;;;;;;;4562937;27;20091;-62
2021/08/11 02:25:13;;;;;;;;;;;;;;;;;;4580551;27;19920;-62
2021/08/11 02:27:27;;;;;;;;;;;;;;;;;;4579684;27;20018;-62
2021/08/11 02:29:37;;;;;;;;;;;;;;;;;;4579283;27;19920;-62
2021/08/11 02:31:56;;;;;;;;;;;;;;;;;;4581118;27;19963;-62
2021/08/11 02:34:08;;;;;;;;;;;;;;;;;;4579710;27;19921;-62
2021/08/11 02:36:28;;;;;;;;;;;;;;;;;;4579910;27;19918;-62
2021/08/11 02:38:39;;;;;;;;;;;;;;;;;;4568300;27;19979;-62
2021/08/11 02:40:54;;;;;;;;;;;;;;;;;;4580179;27;19927;-62
2021/08/11 02:43:07;;;;;;;;;;;;;;;;;;4577903;27;20029;-62
2021/08/11 02:45:18;;;;;;;;;;;;;;;;;;4579357;27;20648;-62
2021/08/11 02:47:29;;;;;;;;;;;;;;;;;;4567878;27;19920;-62
2021/08/11 02:49:41;;;;;;;;;;;;;;;;;;4582039;27;20049;-62
2021/08/11 02:51:54;;;;;;;;;;;;;;;;;;4563744;27;20229;-62
2021/08/11 02:54:05;;;;;;;;;;;;;;;;;;4585420;27;19916;-62
2021/08/11 02:56:16;;;;;;;;;;;;;;;;;;4567915;27;19916;-62
2021/08/11 02:58:26;;;;;;;;;;;;;;;;;;4582123;27;20385;-63
2021/08/11 03:00:37;;;;;;;;;;;;;;;;;;4580373;27;19923;-62
2021/08/11 03:02:48;;;;;;;;;;;;;;;;;;4565349;27;19923;-62
2021/08/11 03:05:00;;;;;;;;;;;;;;;;;;4565445;27;20033;-62
2021/08/11 03:07:12;;;;;;;;;;;;;;;;;;4564960;27;20733;-62
2021/08/11 03:09:23;;;;;;;;;;;;;;;;;;4583237;27;19961;-62
2021/08/11 03:11:34;;;;;;;;;;;;;;;;;;4582082;27;19924;-62
2021/08/11 03:13:45;;;;;;;;;;;;;;;;;;4580038;27;19912;-62
2021/08/11 03:15:55;;;;;;;;;;;;;;;;;;4584570;27;19919;-62
2021/08/11 03:18:06;;;;;;;;;;;;;;;;;;4568190;27;20011;-62
2021/08/11 03:20:16;;;;;;;;;;;;;;;;;;4582421;27;20674;-62
2021/08/11 03:22:27;;;;;;;;;;;;;;;;;;4581406;27;19919;-62
2021/08/11 03:24:37;;;;;;;;;;;;;;;;;;4565046;27;19959;-62
2021/08/11 03:26:48;;;;;;;;;;;;;;;;;;4571764;27;19965;-62
2021/08/11 03:29:00;;;;;;;;;;;;;;;;;;4565734;27;19916;-62
2021/08/11 03:31:11;;;;;;;;;;;;;;;;;;4597454;27;20000;-63
2021/08/11 03:33:25;;;;;;;;;;;;;;;;;;4599025;27;19915;-63
2021/08/11 03:35:35;;;;;;;;;;;;;;;;;;4582556;27;20303;-63
2021/08/11 03:37:46;;;;;;;;;;;;;;;;;;4583035;27;20222;-62
2021/08/11 03:39:58;;;;;;;;;;;;;;;;;;4582713;27;20513;-63
2021/08/11 03:42:08;;;;;;;;;;;;;;;;;;4581662;27;19915;-62
2021/08/11 03:44:19;;;;;;;;;;;;;;;;;;4567226;27;19917;-62
2021/08/11 03:46:31;;;;;;;;;;;;;;;;;;4565612;27;20075;-62
2021/08/11 03:48:42;;;;;;;;;;;;;;;;;;4567974;27;20612;-62
2021/08/11 03:50:52;;;;;;;;;;;;;;;;;;4583006;27;20048;-62
2021/08/11 03:53:04;;;;;;;;;;;;;;;;;;4583780;27;21227;-62
2021/08/11 03:55:17;;;;;;;;;;;;;;;;;;4564257;27;19970;-62
2021/08/11 03:57:27;;;;;;;;;;;;;;;;;;4564480;27;19961;-62
2021/08/11 03:59:38;;;;;;;;;;;;;;;;;;4583246;27;20388;-63
2021/08/11 04:01:53;;;;;;;;;;;;;;;;;;4580231;27;19915;-62
2021/08/11 04:04:04;;;;;;;;;;;;;;;;;;4578553;27;19924;-62
2021/08/11 04:06:14;;;;;;;;;;;;;;;;;;4576794;27;23393;-62
2021/08/11 04:08:24;;;;;;;;;;;;;;;;;;4579401;27;19915;-62
2021/08/11 04:10:35;;;;;;;;;;;;;;;;;;4581426;27;20397;-62
2021/08/11 04:12:45;;;;;;;;;;;;;;;;;;4580123;27;19920;-62
2021/08/11 04:14:55;;;;;;;;;;;;;;;;;;4581399;27;19961;-63
2021/08/11 04:17:07;;;;;;;;;;;;;;;;;;4583421;27;19919;-62
2021/08/11 04:19:17;;;;;;;;;;;;;;;;;;4582239;27;20877;-61
2021/08/11 04:21:28;;;;;;;;;;;;;;;;;;4581710;27;19930;-62
2021/08/11 04:23:38;;;;;;;;;;;;;;;;;;4582312;27;20478;-62
2021/08/11 04:25:48;;;;;;;;;;;;;;;;;;4583993;27;19919;-62
2021/08/11 04:27:58;;;;;;;;;;;;;;;;;;4580532;27;20479;-62
2021/08/11 04:30:09;;;;;;;;;;;;;;;;;;4581134;27;20399;-62
2021/08/11 04:32:19;;;;;;;;;;;;;;;;;;4581158;27;19966;-62
2021/08/11 04:34:29;;;;;;;;;;;;;;;;;;4578146;27;19915;-62
2021/08/11 04:36:40;;;;;;;;;;;;;;;;;;4579208;27;19926;-62
2021/08/11 04:38:50;;;;;;;;;;;;;;;;;;4580104;27;20396;-62
2021/08/11 04:41:00;;;;;;;;;;;;;;;;;;4579532;27;20248;-62
2021/08/11 04:43:10;;;;;;;;;;;;;;;;;;4580955;27;19969;-62
2021/08/11 04:45:21;;;;;;;;;;;;;;;;;;4582586;27;19920;-63
2021/08/11 04:47:31;;;;;;;;;;;;;;;;;;4580788;27;19916;-62
2021/08/11 04:49:41;;;;;;;;;;;;;;;;;;4580064;27;19916;-62
2021/08/11 04:51:52;;;;;;;;;;;;;;;;;;4580278;27;20343;-62
2021/08/11 04:54:02;;;;;;;;;;;;;;;;;;4580378;27;20697;-62
2021/08/11 04:56:12;;;;;;;;;;;;;;;;;;4581636;27;20331;-62
2021/08/11 04:58:22;;;;;;;;;;;;;;;;;;4579387;27;28401;-62
2021/08/11 05:00:33;;;;;;;;;;;;;;;;;;4581688;27;19965;-62
2021/08/11 05:02:43;;;;;;;;;;;;;;;;;;4580636;27;20013;-63
2021/08/11 05:04:53;;;;;;;;;;;;;;;;;;4566759;27;19967;-62
2021/08/11 05:07:07;;;;;;;;;;;;;;;;;;4577821;27;20437;-62
2021/08/11 05:09:17;;;;;;;;;;;;;;;;;;4578517;27;19919;-62
2021/08/11 05:11:27;;;;;;;;;;;;;;;;;;4581356;27;19920;-63
2021/08/11 05:13:38;;;;;;;;;;;;;;;;;;4579306;27;19938;-62
2021/08/11 05:15:48;;;;;;;;;;;;;;;;;;4578716;27;19920;-62
2021/08/11 05:17:58;;;;;;;;;;;;;;;;;;4579036;27;19990;-63
2021/08/11 05:20:09;;;;;;;;;;;;;;;;;;4580109;27;19916;-62
2021/08/11 05:22:20;;;;;;;;;;;;;;;;;;4578197;27;20053;-62
2021/08/11 05:24:30;;;;;;;;;;;;;;;;;;4579003;27;19942;-62
2021/08/11 05:26:40;;;;;;;;;;;;;;;;;;4578230;27;28740;-62
2021/08/11 05:28:51;;;;;;;;;;;;;;;;;;4579334;27;19962;-62
2021/08/11 05:31:01;;;;;;;;;;;;;;;;;;4579586;27;19920;-63
2021/08/11 05:33:11;;;;;;;;;;;;;;;;;;4579301;27;20407;-62
2021/08/11 05:35:21;;;;;;;;;;;;;;;;;;4578835;27;19916;-62
2021/08/11 05:37:32;;;;;;;;;;;;;;;;;;4578704;27;19920;-62
2021/08/11 05:39:42;;;;;;;;;;;;;;;;;;4580756;27;20421;-62
2021/08/11 05:41:52;;;;;;;;;;;;;;;;;;4580653;27;20335;-62
2021/08/11 05:44:04;;;;;;;;;;;;;;;;;;4580160;27;19943;-62
2021/08/11 05:46:15;;;;;;;;;;;;;;;;;;4580461;27;20014;-62
2021/08/11 05:48:25;;;;;;;;;;;;;;;;;;4581321;27;20475;-62
2021/08/11 05:50:36;;;;;;;;;;;;;;;;;;4582208;27;19920;-62
2021/08/11 05:52:47;;;;;;;;;;;;;;;;;;4580543;27;20506;-62
2021/08/11 05:54:57;;;;;;;;;;;;;;;;;;4579486;27;19999;-63
2021/08/11 05:57:08;;;;;;;;;;;;;;;;;;4579992;27;20303;-62
2021/08/11 05:59:18;;;;;;;;;;;;;;;;;;4581823;27;19923;-63
2021/08/11 06:01:28;;;;;;;;;;;;;;;;;;4578615;27;19961;-62
2021/08/11 06:03:39;;;;;;;;;;;;;;;;;;4579927;27;19920;-63
2021/08/11 06:05:56;;;;;;;;;;;;;;;;;;4579006;27;20652;-63
2021/08/11 06:08:06;;;;;;;;;;;;;;;;;;4582174;27;20449;-63
2021/08/11 06:10:17;;;;;;;;;;;;;;;;;;4581479;27;20043;-63
2021/08/11 06:12:27;;;;;;;;;;;;;;;;;;4580409;27;19919;-63
2021/08/11 06:14:37;;;;;;;;;;;;;;;;;;4580568;27;20248;-62
2021/08/11 06:16:48;;;;;;;;;;;;;;;;;;4582230;27;19916;-62
2021/08/11 06:18:58;;;;;;;;;;;;;;;;;;4577668;27;19954;-62
2021/08/11 06:21:09;;;;;;;;;;;;;;;;;;4582342;27;19920;-63
2021/08/11 06:23:19;;;;;;;;;;;;;;;;;;4577729;27;20420;-62
2021/08/11 06:25:29;;;;;;;;;;;;;;;;;;4577284;27;19970;-63
2021/08/11 06:27:40;;;;;;;;;;;;;;;;;;4578297;27;25070;-63
2021/08/11 06:29:50;;;;;;;;;;;;;;;;;;4580075;27;19923;-63
2021/08/11 06:32:02;;;;;;;;;;;;;;;;;;4581181;27;19930;-63
2021/08/11 06:34:12;;;;;;;;;;;;;;;;;;4580417;27;19922;-63
2021/08/11 06:36:23;;;;;;;;;;;;;;;;;;4578352;27;19922;-63
2021/08/11 06:38:33;;;;;;;;;;;;;;;;;;4577219;27;20412;-64
2021/08/11 06:40:43;;;;;;;;;;;;;;;;;;4577672;27;19965;-64
2021/08/11 06:42:54;;;;;;;;;;;;;;;;;;4579010;27;19962;-64
2021/08/11 06:45:09;;;;;;;;;;;;;;;;;;4563963;27;19922;-63
2021/08/11 06:47:19;;;;;;;;;;;;;;;;;;4582156;27;19920;-63
2021/08/11 06:49:30;;;;;;;;;;;;;;;;;;4581677;27;19915;-64
2021/08/11 06:51:40;;;;;;;;;;;;;;;;;;4578085;27;26631;-63
2021/08/11 06:53:51;;;;;;;;;;;;;;;;;;4579840;27;19915;-63
2021/08/11 06:56:01;;;;;;;;;;;;;;;;;;4580737;27;19970;-63
2021/08/11 06:58:11;;;;;;;;;;;;;;;;;;4578845;27;19923;-63
2021/08/11 07:00:22;;;;;;;;;;;;;;;;;;4577819;27;19916;-63
2021/08/11 07:02:32;;;;;;;;;;;;;;;;;;4578294;27;19984;-63
2021/08/11 07:04:42;;;;;;;;;;;;;;;;;;4578071;27;19923;-63
2021/08/11 07:06:54;;;;;;;;;;;;;;;;;;4580721;27;19919;-61
2021/08/11 07:09:05;;;;;;;;;;;;;;;;;;4580210;27;19920;-61
2021/08/11 07:11:15;;;;;;;;;;;;;;;;;;4578188;27;19920;-61
2021/08/11 07:13:25;;;;;;;;;;;;;;;;;;4580309;27;19923;-61
2021/08/11 07:15:36;;;;;;;;;;;;;;;;;;4578053;27;19912;-60
2021/08/11 07:17:53;;;;;;;;;;;;;;;;;;4577230;27;19970;-61
2021/08/11 07:20:07;;;;;;;;;;;;;;;;;;4576574;27;19927;-61
2021/08/11 07:22:21;;;;;;;;;;;;;;;;;;4579466;27;20501;-61
2021/08/11 07:24:31;;;;;;;;;;;;;;;;;;4579303;27;19938;-61
2021/08/11 07:26:42;;;;;;;;;;;;;;;;;;4575314;27;19931;-61
2021/08/11 07:28:52;;;;;;;;;;;;;;;;;;4577444;27;19911;-61
2021/08/11 07:31:02;;;;;;;;;;;;;;;;;;4578037;27;19927;-60
2021/08/11 07:33:13;;;;;;;;;;;;;;;;;;4578309;27;20002;-61
2021/08/11 07:35:23;;;;;;;;;;;;;;;;;;4576169;27;19916;-61
2021/08/11 07:37:43;;;;;;;;;;;;;;;;;;4578143;27;19927;-61
2021/08/11 07:39:57;;;;;;;;;;;;;;;;;;4577918;27;19922;-61
2021/08/11 07:42:08;;;;;;;;;;;;;;;;;;4581892;27;19912;-63
2021/08/11 07:44:18;;;;;;;;;;;;;;;;;;4583676;27;20647;-63
2021/08/11 07:46:28;;;;;;;;;;;;;;;;;;4581511;27;19923;-63
2021/08/11 07:48:39;;;;;;;;;;;;;;;;;;4579867;27;19915;-63
2021/08/11 07:50:49;;;;;;;;;;;;;;;;;;4582531;27;19958;-63
2021/08/11 07:52:59;;;;;;;;;;;;;;;;;;4581960;27;19915;-63
2021/08/11 07:55:10;;;;;;;;;;;;;;;;;;4580112;27;20384;-63
2021/08/11 07:57:20;;;;;;;;;;;;;;;;;;4581419;27;19988;-63
2021/08/11 07:59:31;;;;;;;;;;;;;;;;;;4581298;27;19954;-63
2021/08/11 08:01:41;;;;;;;;;;;;;;;;;;4581298;27;19923;-63
2021/08/11 08:03:52;;;;;;;;;;;;;;;;;;4579914;27;19915;-63
2021/08/11 08:06:02;;;;;;;;;;;;;;;;;;4579949;27;19961;-63
2021/08/11 08:08:13;;;;;;;;;;;;;;;;;;4579594;27;19920;-63
2021/08/11 08:10:24;;;;;;;;;;;;;;;;;;4580304;27;19916;-64
2021/08/11 08:12:34;;;;;;;;;;;;;;;;;;4580164;27;19928;-64
2021/08/11 08:14:44;;;;;;;;;;;;;;;;;;4577432;27;19935;-64
2021/08/11 08:16:55;;;;;;;;;;;;;;;;;;4581081;27;19916;-65
2021/08/11 08:19:05;;;;;;;;;;;;;;;;;;4581008;27;19948;-65
2021/08/11 08:21:15;;;;;;;;;;;;;;;;;;4582385;27;19916;-65
2021/08/11 08:23:26;;;;;;;;;;;;;;;;;;4579848;27;19916;-65
2021/08/11 08:25:36;;;;;;;;;;;;;;;;;;4578490;27;19924;-65
2021/08/11 08:27:50;;;;;;;;;;;;;;;;;;4577358;27;19916;-65
2021/08/11 08:30:01;;;;;;;;;;;;;;;;;;4578666;27;19923;-65
2021/08/11 08:32:11;;;;;;;;;;;;;;;;;;4578867;27;20327;-65
2021/08/11 08:34:22;;;;;;;;;;;;;;;;;;4582647;27;19915;-65
2021/08/11 08:36:32;;;;;;;;;;;;;;;;;;4580044;27;19924;-65
2021/08/11 08:38:42;;;;;;;;;;;;;;;;;;4579589;27;19946;-65
2021/08/11 08:40:53;;;;;;;;;;;;;;;;;;4580407;27;19956;-65
2021/08/11 08:43:04;;;;;;;;;;;;;;;;;;4582863;27;19920;-65
2021/08/11 08:45:15;;;;;;;;;;;;;;;;;;4582488;27;19911;-67
2021/08/11 08:47:25;;;;;;;;;;;;;;;;;;4581574;27;19920;-65
2021/08/11 08:49:35;;;;;;;;;;;;;;;;;;4579108;27;19970;-65
2021/08/11 08:51:46;;;;;;;;;;;;;;;;;;4579399;27;19970;-65
2021/08/11 08:53:57;;;;;;;;;;;;;;;;;;4580957;27;20527;-65
2021/08/11 08:56:08;;;;;;;;;;;;;;;;;;4578850;27;20821;-65
2021/08/11 08:58:18;;;;;;;;;;;;;;;;;;4578096;27;19915;-65
2021/08/11 09:00:30;;;;;;;;;;;;;;;;;;4580646;27;19920;-65
2021/08/11 09:02:40;;;;;;;;;;;;;;;;;;4577385;27;19916;-65
2021/08/11 09:04:51;;;;;;;;;;;;;;;;;;4578815;27;19912;-65
2021/08/11 09:07:04;;;;;;;;;;;;;;;;;;4583904;27;19927;-65
2021/08/11 09:09:14;;;;;;;;;;;;;;;;;;4578478;27;19915;-65
2021/08/11 09:11:24;;;;;;;;;;;;;;;;;;4577897;27;20379;-65
2021/08/11 09:13:35;;;;;;;;;;;;;;;;;;4581360;27;19920;-65
2021/08/11 09:15:46;;;;;;;;;;;;;;;;;;4580509;27;20020;-65
2021/08/11 09:17:57;;;;;;;;;;;;;;;;;;4579867;27;19919;-65
2021/08/11 09:20:08;;;;;;;;;;;;;;;;;;4577348;27;20068;-65
2021/08/11 09:22:19;;;;;;;;;;;;;;;;;;4580378;27;19916;-65
2021/08/11 09:24:36;;;;;;;;;;;;;;;;;;4578392;27;19927;-69
2021/08/11 09:26:46;;;;;;;;;;;;;;;;;;4582460;27;20022;-66
2021/08/11 09:29:06;;;;;;;;;;;;;;;;;;4580585;27;19998;-64
2021/08/11 09:31:32;;;;;;;;;;;;;;;;;;4578196;27;19978;-63
2021/08/11 09:33:45;;;;;;;;;;;;;;;;;;4580860;27;19916;-63
2021/08/11 09:35:56;;;;;;;;;;;;;;;;;;4580896;27;19912;-64
2021/08/11 09:38:13;;;;;;;;;;;;;;;;;;4577964;27;19920;-63
2021/08/11 09:40:30;;;;;;;;;;;;;;;;;;4579444;27;19920;-64
2021/08/11 09:42:41;;;;;;;;;;;;;;;;;;4579418;27;19920;-64
2021/08/11 09:44:59;;;;;;;;;;;;;;;;;;4578923;27;19923;-64
2021/08/11 09:47:18;;;;;;;;;;;;;;;;;;4579935;27;19961;-64
2021/08/11 09:49:28;;;;;;;;;;;;;;;;;;4576476;27;20702;-63
2021/08/11 09:51:55;;;;;;;;;;;;;;;;;;4562261;27;19920;-64
2021/08/11 09:54:05;;;;;;;;;;;;;;;;;;4579154;27;19916;-64
2021/08/11 09:56:16;;;;;;;;;;;;;;;;;;4579201;27;19919;-64
2021/08/11 09:58:26;;;;;;;;;;;;;;;;;;4575823;27;19916;-64
2021/08/11 10:00:37;;;;;;;;;;;;;;;;;;4579264;27;19923;-64
2021/08/11 10:03:02;;;;;;;;;;;;;;;;;;4580014;27;19920;-64
2021/08/11 10:05:30;;;;;;;;;;;;;;;;;;4582071;27;19912;-63
2021/08/11 10:07:51;;;;;;;;;;;;;;;;;;4579110;27;19920;-63
2021/08/11 10:10:05;;;;;;;;;;;;;;;;;;4578279;27;19922;-64
2021/08/11 10:12:29;;;;;;;;;;;;;;;;;;4577942;27;19942;-63
2021/08/11 10:14:39;;;;;;;;;;;;;;;;;;4578364;27;19916;-65
2021/08/11 10:16:50;;;;;;;;;;;;;;;;;;4579456;27;20337;-65
2021/08/11 10:19:04;;;;;;;;;;;;;;;;;;4577534;27;19919;-65
2021/08/11 10:21:14;;;;;;;;;;;;;;;;;;4578773;27;20486;-65
2021/08/11 10:23:25;;;;;;;;;;;;;;;;;;4578476;27;19916;-64
2021/08/11 10:25:35;;;;;;;;;;;;;;;;;;4582035;27;20480;-65
2021/08/11 10:27:46;;;;;;;;;;;;;;;;;;4579307;27;19920;-65
2021/08/11 10:29:56;;;;;;;;;;;;;;;;;;4578369;27;19935;-64
2021/08/11 10:32:07;;;;;;;;;;;;;;;;;;4580219;27;19931;-64
2021/08/11 10:34:17;;;;;;;;;;;;;;;;;;4561885;28;20495;-64
2021/08/11 10:36:32;;;;;;;;;;;;;;;;;;4579198;27;20066;-65
2021/08/11 10:38:43;;;;;;;;;;;;;;;;;;4579866;27;19916;-65
2021/08/11 10:40:53;;;;;;;;;;;;;;;;;;4581553;27;19915;-66
2021/08/11 10:43:03;;;;;;;;;;;;;;;;;;4580474;27;19998;-65
2021/08/11 10:45:14;;;;;;;;;;;;;;;;;;4579010;27;19924;-65
2021/08/11 10:47:28;;;;;;;;;;;;;;;;;;4578247;27;19934;-64
2021/08/11 10:49:54;;;;;;;;;;;;;;;;;;4579840;27;19978;-64
2021/08/11 10:52:05;;;;;;;;;;;;;;;;;;4560041;27;19966;-64
2021/08/11 10:54:15;;;;;;;;;;;;;;;;;;4579497;27;19927;-66
2021/08/11 10:56:45;;;;;;;;;;;;;;;;;;4577936;27;20470;-66
2021/08/11 10:58:55;;;;;;;;;;;;;;;;;;4580719;27;20526;-66
2021/08/11 11:01:24;;;;;;;;;;;;;;;;;;4578714;27;19973;-65
2021/08/11 11:03:48;;;;;;;;;;;;;;;;;;4580018;27;19927;-65
2021/08/11 11:05:58;;;;;;;;;;;;;;;;;;4565033;27;20025;-65
2021/08/11 11:08:13;;;;;;;;;;;;;;;;;;4578428;27;19922;-65
2021/08/11 11:10:24;;;;;;;;;;;;;;;;;;4580011;27;19937;-65
2021/08/11 11:12:36;;;;;;;;;;;;;;;;;;4580584;27;20385;-65
2021/08/11 11:14:52;;;;;;;;;;;;;;;;;;4580401;27;20560;-65
2021/08/11 11:17:03;;;;;;;;;;;;;;;;;;4581210;27;19923;-65
2021/08/11 11:19:13;;;;;;;;;;;;;;;;;;4580117;27;19922;-65
2021/08/11 11:21:23;;;;;;;;;;;;;;;;;;4580420;27;19920;-65
2021/08/11 11:23:34;;;;;;;;;;;;;;;;;;4583081;27;19916;-65
2021/08/11 11:25:59;;;;;;;;;;;;;;;;;;4580363;27;19986;-65
2021/08/11 11:28:09;;;;;;;;;;;;;;;;;;4564594;27;19916;-65
2021/08/11 11:30:25;;;;;;;;;;;;;;;;;;4581319;27;20113;-65
2021/08/11 11:32:36;;;;;;;;;;;;;;;;;;4581090;27;19920;-65
2021/08/11 11:34:47;;;;;;;;;;;;;;;;;;4585076;27;19916;-65
2021/08/11 11:37:00;;;;;;;;;;;;;;;;;;4580665;27;19916;-67
2021/08/11 11:39:11;;;;;;;;;;;;;;;;;;4582023;27;19970;-65
2021/08/11 11:41:23;;;;;;;;;;;;;;;;;;4581134;27;20430;-65
2021/08/11 11:43:33;;;;;;;;;;;;;;;;;;4579934;27;20512;-65
2021/08/11 11:45:45;;;;;;;;;;;;;;;;;;4581881;27;20006;-65
2021/08/11 11:47:58;;;;;;;;;;;;;;;;;;4581896;27;19912;-65
2021/08/11 11:52:30;;;;;;;;;;;;;;;;;;4582926;27;20638;-65
2021/08/11 11:54:45;;;;;;;;;;;;;;;;;;4580629;27;19976;-64
2021/08/11 11:56:55;;;;;;;;;;;;;;;;;;4581616;27;20660;-65
2021/08/11 11:59:07;;;;;;;;;;;;;;;;;;4554696;27;19916;-65
2021/08/11 12:01:18;;;;;;;;;;;;;;;;;;4580918;27;20014;-64
2021/08/11 12:03:35;;;;;;;;;;;;;;;;;;4580670;27;20034;-65
2021/08/11 12:05:49;;;;;;;;;;;;;;;;;;4580475;27;19916;-65
2021/08/11 12:08:08;;;;;;;;;;;;;;;;;;4580704;27;21314;-65
2021/08/11 12:10:26;;;;;;;;;;;;;;;;;;4582968;27;19928;-65
2021/08/11 12:12:36;;;;;;;;;;;;;;;;;;4582632;27;19927;-65
2021/08/11 12:14:46;;;;;;;;;;;;;;;;;;4581810;27;19978;-65
2021/08/11 12:16:57;;;;;;;;;;;;;;;;;;4580445;27;20049;-65
2021/08/11 12:19:11;;;;;;;;;;;;;;;;;;4581404;27;20006;-65
2021/08/11 12:21:22;;;;;;;;;;;;;;;;;;4582092;27;19919;-66
2021/08/11 12:23:32;;;;;;;;;;;;;;;;;;4582279;27;19915;-65
2021/08/11 12:25:43;;;;;;;;;;;;;;;;;;4579942;27;20716;-65
2021/08/11 12:28:12;;;;;;;;;;;;;;;;;;4581104;27;19954;-66
2021/08/11 12:30:22;;;;;;;;;;;;;;;;;;4581704;27;19916;-65
2021/08/11 12:32:32;;;;;;;;;;;;;;;;;;4582259;27;20886;-65
2021/08/11 12:34:45;;;;;;;;;;;;;;;;;;4579616;27;20300;-65
2021/08/11 12:36:56;;;;;;;;;;;;;;;;;;4581483;27;20388;-65
2021/08/11 12:39:11;;;;;;;;;;;;;;;;;;4582110;27;19919;-65
2021/08/11 12:41:22;;;;;;;;;;;;;;;;;;4580116;27;19919;-65
2021/08/11 12:43:37;;;;;;;;;;;;;;;;;;4567173;27;19923;-65
2021/08/11 12:45:48;;;;;;;;;;;;;;;;;;4582068;27;19920;-65
2021/08/11 12:47:58;;;;;;;;;;;;;;;;;;4581530;27;19953;-66
2021/08/11 12:50:18;;;;;;;;;;;;;;;;;;4579907;27;19974;-66
2021/08/11 12:52:28;;;;;;;;;;;;;;;;;;4581800;27;19923;-65
2021/08/11 12:54:51;;;;;;;;;;;;;;;;;;4582429;27;19916;-65
2021/08/11 12:57:02;;;;;;;;;;;;;;;;;;4581191;27;19950;-65
2021/08/11 12:59:12;;;;;;;;;;;;;;;;;;4580638;27;19920;-66
2021/08/11 13:01:32;;;;;;;;;;;;;;;;;;4580699;27;19916;-65
2021/08/11 13:03:45;;;;;;;;;;;;;;;;;;4581928;27;19971;-66
2021/08/11 13:05:58;;;;;;;;;;;;;;;;;;4582390;27;19981;-65
2021/08/11 13:08:08;;;;;;;;;;;;;;;;;;4582022;27;19915;-65
2021/08/11 13:10:19;;;;;;;;;;;;;;;;;;4579162;27;20295;-65
2021/08/11 13:12:29;;;;;;;;;;;;;;;;;;4579681;27;19923;-65
2021/08/11 13:14:46;;;;;;;;;;;;;;;;;;4581292;27;19919;-65
2021/08/11 13:17:02;;;;;;;;;;;;;;;;;;4579595;27;20519;-65
2021/08/11 13:19:16;;;;;;;;;;;;;;;;;;4578241;27;19959;-66
2021/08/11 13:21:39;;;;;;;;;;;;;;;;;;4582092;27;19916;-65
2021/08/11 13:23:51;;;;;;;;;;;;;;;;;;4580683;27;19931;-65
2021/08/11 13:26:01;;;;;;;;;;;;;;;;;;4580042;27;20398;-65
2021/08/11 13:28:13;;;;;;;;;;;;;;;;;;4578714;27;19920;-65
2021/08/11 13:30:24;;;;;;;;;;;;;;;;;;4579158;27;19913;-65
2021/08/11 13:32:35;;;;;;;;;;;;;;;;;;4581142;27;20064;-65
2021/08/11 13:34:46;;;;;;;;;;;;;;;;;;4580932;27;20061;-65
2021/08/11 13:36:56;;;;;;;;;;;;;;;;;;4579666;27;19924;-65
2021/08/11 13:39:06;;;;;;;;;;;;;;;;;;4579099;27;20388;-65
2021/08/11 13:41:16;;;;;;;;;;;;;;;;;;4578276;27;19920;-65
2021/08/11 13:43:27;;;;;;;;;;;;;;;;;;4581301;27;19955;-65
2021/08/11 13:45:37;;;;;;;;;;;;;;;;;;4578772;27;20125;-64
2021/08/11 13:47:48;;;;;;;;;;;;;;;;;;4579397;27;19919;-65
2021/08/11 13:49:58;;;;;;;;;;;;;;;;;;4578847;27;19943;-65
2021/08/11 13:52:09;;;;;;;;;;;;;;;;;;4581097;27;19998;-65
2021/08/11 13:54:23;;;;;;;;;;;;;;;;;;4580404;27;19923;-65
2021/08/11 13:56:33;;;;;;;;;;;;;;;;;;4576994;27;19923;-65
2021/08/11 13:58:44;;;;;;;;;;;;;;;;;;4579541;27;20410;-65
2021/08/11 14:00:54;;;;;;;;;;;;;;;;;;4580515;27;19916;-65
2021/08/11 14:03:04;;;;;;;;;;;;;;;;;;4580865;27;26292;-65
2021/08/11 14:05:15;;;;;;;;;;;;;;;;;;4580733;27;19920;-65
2021/08/11 14:07:25;;;;;;;;;;;;;;;;;;4582112;27;19922;-65
2021/08/11 14:09:36;;;;;;;;;;;;;;;;;;4578646;27;19923;-65
2021/08/11 14:11:46;;;;;;;;;;;;;;;;;;4578209;27;20406;-65
2021/08/11 14:13:56;;;;;;;;;;;;;;;;;;4577600;27;20412;-65
2021/08/11 14:16:07;;;;;;;;;;;;;;;;;;4576892;27;19994;-65
2021/08/11 14:18:18;;;;;;;;;;;;;;;;;;4577488;27;20353;-65
2021/08/11 14:20:28;;;;;;;;;;;;;;;;;;4578831;27;20033;-65
2021/08/11 14:22:38;;;;;;;;;;;;;;;;;;4580525;27;19966;-64
2021/08/11 14:24:49;;;;;;;;;;;;;;;;;;4577419;27;20430;-65
2021/08/11 14:26:59;;;;;;;;;;;;;;;;;;4581745;27;19943;-65
2021/08/11 14:29:09;;;;;;;;;;;;;;;;;;4576919;27;19938;-65
2021/08/11 14:31:20;;;;;;;;;;;;;;;;;;4580804;27;19920;-65
2021/08/11 14:33:30;;;;;;;;;;;;;;;;;;4580152;27;19945;-65
2021/08/11 14:35:41;;;;;;;;;;;;;;;;;;4578592;27;19923;-65
2021/08/11 14:37:51;;;;;;;;;;;;;;;;;;4570808;27;19974;-64
2021/08/11 14:40:01;;;;;;;;;;;;;;;;;;4576725;27;19920;-65
2021/08/11 14:42:12;;;;;;;;;;;;;;;;;;4578190;27;20565;-65
2021/08/11 14:44:23;;;;;;;;;;;;;;;;;;4577705;27;19947;-65
2021/08/11 14:46:33;;;;;;;;;;;;;;;;;;4580746;27;20048;-65
2021/08/11 14:48:43;;;;;;;;;;;;;;;;;;4579719;27;19920;-65
2021/08/11 14:50:54;;;;;;;;;;;;;;;;;;4581693;27;20399;-65
2021/08/11 14:53:05;;;;;;;;;;;;;;;;;;4582120;27;19962;-66
2021/08/11 14:55:16;;;;;;;;;;;;;;;;;;4581125;27;19916;-65
2021/08/11 14:57:26;;;;;;;;;;;;;;;;;;4582581;27;19916;-65
2021/08/11 14:59:36;;;;;;;;;;;;;;;;;;4580716;27;20380;-65
2021/08/11 15:01:47;;;;;;;;;;;;;;;;;;4584632;27;19923;-65
2021/08/11 15:03:57;;;;;;;;;;;;;;;;;;4580578;27;27841;-65